createdAt,value
2022-08-04T00:00:09.972Z,25.87
2022-08-04T00:02:48.614Z,25.85
2022-08-04T00:05:29.286Z,25.85
2022-08-04T00:08:12.340Z,25.84
2022-08-04T00:10:40.550Z,25.86
2022-08-04T00:13:09.566Z,25.91
2022-08-04T00:15:37.524Z,25.88
2022-08-04T00:18:07.464Z,25.85
2022-08-04T00:20:41.030Z,25.83
2022-08-04T00:23:08.372Z,25.80
2022-08-04T00:25:40.660Z,25.76
2022-08-04T00:28:07.486Z,25.75
2022-08-04T00:30:34.128Z,25.70
2022-08-04T00:33:00.834Z,25.68
2022-08-04T00:35:29.272Z,25.66
2022-08-04T00:37:56.303Z,25.68
2022-08-04T00:40:32.855Z,25.69
2022-08-04T00:43:10.526Z,25.73
2022-08-04T00:46:14.937Z,25.79
2022-08-04T00:49:01.009Z,25.85
2022-08-04T00:51:42.476Z,25.89
2022-08-04T00:54:23.974Z,25.95
2022-08-04T00:57:28.638Z,26.00
2022-08-04T01:00:11.946Z,26.06
2022-08-04T01:03:00.889Z,26.12
2022-08-04T01:06:08.839Z,26.16
2022-08-04T01:09:00.467Z,26.24
2022-08-04T01:11:56.887Z,26.29
2022-08-04T01:15:05.580Z,26.32
2022-08-04T01:18:06.133Z,26.36
2022-08-04T01:21:00.385Z,26.40
2022-08-04T01:23:49.703Z,26.46
2022-08-04T01:26:43.289Z,26.51
2022-08-04T01:29:29.305Z,26.58
2022-08-04T01:32:26.407Z,26.59
2022-08-04T01:35:47.528Z,26.61
2022-08-04T01:38:33.648Z,26.67
2022-08-04T01:41:05.268Z,26.72
2022-08-04T01:43:34.602Z,26.73
2022-08-04T01:46:04.786Z,26.74
2022-08-04T01:48:32.455Z,26.77
2022-08-04T01:51:06.974Z,26.77
2022-08-04T01:53:36.725Z,26.80
2022-08-04T01:56:05.022Z,26.83
2022-08-04T01:58:33.426Z,26.85
2022-08-04T02:01:08.763Z,26.87
2022-08-04T02:04:21.937Z,26.88
2022-08-04T02:06:35.740Z,26.88
2022-08-04T02:09:28.584Z,26.87
2022-08-04T02:12:16.291Z,26.89
2022-08-04T02:14:55.589Z,26.88
2022-08-04T02:17:24.575Z,26.90
2022-08-04T02:20:16.322Z,26.85
2022-08-04T02:23:09.810Z,26.84
2022-08-04T02:25:46.030Z,26.88
2022-08-04T02:28:22.052Z,26.88
2022-08-04T02:31:03.042Z,26.86
2022-08-04T02:33:44.730Z,26.84
2022-08-04T02:36:17.371Z,26.85
2022-08-04T02:38:49.731Z,26.85
2022-08-04T02:41:20.061Z,26.85
2022-08-04T02:43:52.211Z,26.86
2022-08-04T02:46:21.195Z,26.87
2022-08-04T02:48:49.262Z,26.87
2022-08-04T02:51:22.914Z,26.87
2022-08-04T02:53:55.468Z,26.87
2022-08-04T02:56:23.208Z,26.89
2022-08-04T02:58:56.490Z,26.88
2022-08-04T03:01:24.060Z,26.90
2022-08-04T03:04:01.343Z,26.88
2022-08-04T03:06:49.139Z,26.88
2022-08-04T03:09:28.014Z,26.86
2022-08-04T03:12:01.667Z,26.89
2022-08-04T03:15:01.303Z,26.83
2022-08-04T03:17:55.580Z,26.83
2022-08-04T03:20:46.751Z,26.85
2022-08-04T03:23:39.112Z,26.82
2022-08-04T03:26:17.767Z,26.82
2022-08-04T03:29:11.756Z,26.75
2022-08-04T03:31:47.702Z,26.78
2022-08-04T03:34:33.028Z,26.67
2022-08-04T03:37:00.106Z,26.70
2022-08-04T03:39:54.110Z,26.69
2022-08-04T03:42:31.029Z,26.63
2022-08-04T03:44:57.556Z,26.66
2022-08-04T03:47:33.093Z,26.63
2022-08-04T03:51:34.119Z,26.61
2022-08-04T03:54:38.228Z,26.63
2022-08-04T03:57:10.702Z,26.68
2022-08-04T04:00:06.553Z,26.60
2022-08-04T04:03:05.351Z,26.60
2022-08-04T04:06:02.427Z,26.61
2022-08-04T04:09:01.925Z,26.60
2022-08-04T04:11:34.306Z,26.61
2022-08-04T04:14:46.530Z,26.57
2022-08-04T04:17:25.149Z,26.58
2022-08-04T04:20:25.149Z,26.54
2022-08-04T04:23:05.796Z,26.55
2022-08-04T04:26:01.265Z,26.54
2022-08-04T04:28:47.157Z,26.52
2022-08-04T04:31:40.050Z,26.54
2022-08-04T04:34:21.521Z,26.55
2022-08-04T04:37:01.822Z,26.52
2022-08-04T04:39:50.476Z,26.48
2022-08-04T04:42:23.212Z,26.47
2022-08-04T04:45:17.266Z,26.42
2022-08-04T04:48:09.768Z,26.43
2022-08-04T04:51:05.842Z,26.35
2022-08-04T04:54:09.723Z,26.31
2022-08-04T04:57:03.512Z,26.27
2022-08-04T04:59:34.903Z,26.29
2022-08-04T05:02:25.187Z,26.23
2022-08-04T05:05:15.722Z,26.23
2022-08-04T05:08:44.889Z,26.25
2022-08-04T05:11:26.100Z,26.18
2022-08-04T05:14:37.037Z,26.23
2022-08-04T05:16:47.956Z,26.22
2022-08-04T05:19:23.914Z,26.22
2022-08-04T05:21:57.301Z,26.24
2022-08-04T05:24:26.286Z,26.28
2022-08-04T05:26:56.979Z,26.33
2022-08-04T05:29:34.596Z,26.35
2022-08-04T05:32:08.789Z,26.42
2022-08-04T05:34:45.335Z,26.47
2022-08-04T05:37:16.570Z,26.56
2022-08-04T05:39:47.981Z,26.64
2022-08-04T05:42:15.605Z,26.72
2022-08-04T05:44:47.610Z,26.79
2022-08-04T05:47:17.717Z,26.87
2022-08-04T05:49:45.751Z,26.97
2022-08-04T05:52:28.652Z,27.08
2022-08-04T05:54:56.555Z,27.18
2022-08-04T05:57:23.903Z,27.29
2022-08-04T05:59:52.213Z,27.40
2022-08-04T06:02:20.309Z,27.51
2022-08-04T06:04:51.438Z,27.60
2022-08-04T06:07:18.853Z,27.71
2022-08-04T06:09:45.637Z,27.80
2022-08-04T06:12:19.288Z,27.88
2022-08-04T06:14:48.787Z,27.97
2022-08-04T06:18:35.063Z,28.05
2022-08-04T06:20:19.694Z,28.15
2022-08-04T06:22:55.575Z,28.19
2022-08-04T06:25:29.650Z,28.23
2022-08-04T06:27:57.125Z,28.34
2022-08-04T06:30:26.998Z,28.37
2022-08-04T06:33:04.013Z,28.38
2022-08-04T06:35:33.245Z,28.43
2022-08-04T06:38:01.679Z,28.48
2022-08-04T06:40:33.177Z,28.55
2022-08-04T06:43:06.726Z,28.58
2022-08-04T06:45:37.796Z,28.63
2022-08-04T06:48:06.610Z,28.77
2022-08-04T06:51:25.592Z,28.81
2022-08-04T06:53:22.743Z,28.88
2022-08-04T06:55:50.688Z,28.94
2022-08-04T06:58:19.562Z,28.99
2022-08-04T07:00:48.050Z,29.04
2022-08-04T07:03:17.126Z,29.07
2022-08-04T07:05:46.254Z,29.11
2022-08-04T07:08:13.397Z,29.15
2022-08-04T07:10:40.713Z,29.18
2022-08-04T07:13:09.559Z,29.20
2022-08-04T07:15:39.082Z,29.23
2022-08-04T07:18:05.849Z,29.26
2022-08-04T07:20:35.812Z,29.30
2022-08-04T07:23:07.492Z,29.34
2022-08-04T07:26:00.536Z,29.40
2022-08-04T07:28:25.013Z,29.49
2022-08-04T07:30:53.693Z,29.55
2022-08-04T07:33:21.014Z,29.60
2022-08-04T07:36:09.765Z,29.64
2022-08-04T07:38:46.494Z,29.73
2022-08-04T07:41:43.291Z,29.76
2022-08-04T07:44:14.677Z,29.83
2022-08-04T07:46:42.555Z,29.86
2022-08-04T07:49:10.104Z,29.90
2022-08-04T07:51:37.684Z,29.93
2022-08-04T07:54:05.948Z,29.94
2022-08-04T07:56:36.125Z,29.96
2022-08-04T07:59:02.835Z,30.00
2022-08-04T08:01:30.111Z,30.03
2022-08-04T08:03:58.137Z,30.05
2022-08-04T08:06:32.243Z,30.07
2022-08-04T08:09:12.125Z,30.11
2022-08-04T08:12:36.220Z,30.16
2022-08-04T08:14:30.399Z,30.21
2022-08-04T08:16:59.245Z,30.25
2022-08-04T08:19:25.848Z,30.30
2022-08-04T08:21:58.636Z,30.35
2022-08-04T08:24:30.619Z,30.39
2022-08-04T08:26:58.335Z,30.42
2022-08-04T08:29:26.627Z,30.43
2022-08-04T08:31:58.368Z,30.48
2022-08-04T08:34:29.132Z,30.52
2022-08-04T08:37:03.822Z,30.56
2022-08-04T08:40:10.532Z,30.56
2022-08-04T08:42:49.313Z,30.66
2022-08-04T08:45:57.991Z,30.65
2022-08-04T08:48:50.113Z,30.72
2022-08-04T08:51:47.608Z,30.83
2022-08-04T08:55:10.468Z,30.89
2022-08-04T08:58:00.244Z,31.00
2022-08-04T09:00:46.157Z,31.13
2022-08-04T09:03:40.218Z,31.19
2022-08-04T09:06:24.905Z,31.30
2022-08-04T09:09:14.995Z,31.39
2022-08-04T09:11:56.165Z,31.53
2022-08-04T09:14:35.143Z,31.63
2022-08-04T09:17:05.514Z,31.71
2022-08-04T09:19:51.604Z,31.76
2022-08-04T09:22:29.819Z,31.84
2022-08-04T09:25:05.278Z,31.92
2022-08-04T09:27:44.547Z,32.01
2022-08-04T09:30:13.628Z,32.11
2022-08-04T09:33:11.505Z,32.17
2022-08-04T09:35:48.906Z,32.26
2022-08-04T09:38:38.820Z,32.33
2022-08-04T09:41:48.848Z,32.44
2022-08-04T09:44:52.610Z,32.57
2022-08-04T09:47:20.655Z,32.66
2022-08-04T09:50:19.860Z,32.75
2022-08-04T09:53:06.523Z,32.85
2022-08-04T09:56:03.547Z,32.95
2022-08-04T09:58:44.549Z,33.04
2022-08-04T10:01:22.640Z,33.15
2022-08-04T10:03:55.070Z,33.26
2022-08-04T10:06:40.457Z,33.36
2022-08-04T10:09:30.074Z,33.42
2022-08-04T10:12:20.625Z,33.51
2022-08-04T10:14:47.143Z,33.63
2022-08-04T10:17:20.525Z,33.66
2022-08-04T10:20:01.579Z,33.72
2022-08-04T10:23:02.319Z,33.79
2022-08-04T10:26:06.935Z,33.84
2022-08-04T10:28:43.204Z,33.95
2022-08-04T10:31:15.914Z,34.03
2022-08-04T10:33:53.254Z,34.11
2022-08-04T10:36:24.118Z,34.24
2022-08-04T10:39:01.202Z,34.38
2022-08-04T10:41:39.875Z,34.55
2022-08-04T10:44:23.461Z,34.72
2022-08-04T10:46:56.289Z,34.91
2022-08-04T10:49:33.042Z,35.11
2022-08-04T10:52:07.571Z,35.27
2022-08-04T10:54:55.868Z,35.44
2022-08-04T10:57:46.391Z,35.70
2022-08-04T11:00:16.526Z,36.07
2022-08-04T11:03:05.872Z,36.48
2022-08-04T11:05:43.863Z,37.02
2022-08-04T11:08:26.214Z,37.63
2022-08-04T11:11:06.708Z,38.26
2022-08-04T11:13:45.043Z,38.87
2022-08-04T11:16:27.719Z,39.46
2022-08-04T11:19:15.527Z,39.90
2022-08-04T11:21:55.447Z,40.16
2022-08-04T11:24:46.810Z,40.26
2022-08-04T11:27:25.822Z,40.40
2022-08-04T11:30:05.435Z,40.54
2022-08-04T11:32:46.964Z,40.62
2022-08-04T11:35:27.731Z,40.64
2022-08-04T11:38:04.991Z,40.66
2022-08-04T11:40:48.371Z,40.59
2022-08-04T11:44:02.633Z,40.49
2022-08-04T11:46:42.262Z,40.47
2022-08-04T11:49:16.692Z,40.45
2022-08-04T11:51:45.828Z,40.51
2022-08-04T11:54:13.778Z,40.63
2022-08-04T11:56:40.661Z,40.82
2022-08-04T11:59:10.336Z,41.04
2022-08-04T12:02:06.529Z,41.33
2022-08-04T12:04:58.519Z,41.62
2022-08-04T12:07:32.068Z,41.96
2022-08-04T12:10:47.417Z,42.24
2022-08-04T12:13:40.743Z,42.55
2022-08-04T12:16:30.676Z,42.79
2022-08-04T12:19:14.418Z,42.84
2022-08-04T12:21:53.300Z,42.89
2022-08-04T12:24:28.057Z,42.90
2022-08-04T12:26:58.395Z,42.83
2022-08-04T12:29:27.648Z,42.68
2022-08-04T12:32:00.559Z,42.50
2022-08-04T12:34:34.205Z,42.30
2022-08-04T12:37:12.878Z,42.06
2022-08-04T12:40:27.433Z,41.85
2022-08-04T12:42:42.172Z,41.48
2022-08-04T12:45:27.180Z,41.07
2022-08-04T12:47:58.158Z,40.64
2022-08-04T12:50:25.599Z,40.24
2022-08-04T12:53:04.027Z,39.84
2022-08-04T12:55:34.338Z,39.47
2022-08-04T12:58:11.690Z,39.12
2022-08-04T13:00:41.792Z,38.69
2022-08-04T13:03:12.498Z,38.27
2022-08-04T13:05:43.396Z,37.79
2022-08-04T13:08:12.707Z,37.32
2022-08-04T13:10:46.510Z,36.84
2022-08-04T13:13:21.974Z,36.38
2022-08-04T13:16:02.866Z,35.91
2022-08-04T13:18:33.342Z,35.55
2022-08-04T13:21:23.167Z,35.04
2022-08-04T13:24:20.927Z,34.70
2022-08-04T13:27:09.115Z,34.38
2022-08-04T13:30:00.043Z,34.20
2022-08-04T13:32:29.828Z,34.02
2022-08-04T13:34:59.973Z,33.92
2022-08-04T13:37:33.511Z,33.84
2022-08-04T13:40:01.918Z,33.86
2022-08-04T13:42:29.510Z,33.89
2022-08-04T13:44:59.731Z,33.92
2022-08-04T13:47:32.002Z,33.88
2022-08-04T13:50:18.293Z,33.81
2022-08-04T13:52:47.086Z,33.70
2022-08-04T13:55:42.871Z,33.42
2022-08-04T13:58:13.999Z,33.29
2022-08-04T14:00:42.534Z,33.05
2022-08-04T14:03:23.130Z,32.85
2022-08-04T14:06:27.040Z,32.58
2022-08-04T14:08:59.185Z,32.44
2022-08-04T14:12:09.411Z,32.29
2022-08-04T14:14:29.440Z,32.23
2022-08-04T14:17:00.711Z,32.19
2022-08-04T14:19:36.057Z,32.15
2022-08-04T14:22:03.594Z,32.12
2022-08-04T14:24:32.497Z,32.09
2022-08-04T14:27:00.741Z,32.05
2022-08-04T14:29:37.169Z,32.02
2022-08-04T14:32:12.568Z,32.08
2022-08-04T14:34:45.727Z,32.22
2022-08-04T14:37:20.516Z,32.41
2022-08-04T14:40:07.907Z,32.61
2022-08-04T14:42:41.411Z,32.85
2022-08-04T14:45:08.772Z,33.03
2022-08-04T14:47:39.631Z,33.28
2022-08-04T14:50:07.894Z,33.71
2022-08-04T14:52:37.290Z,34.26
2022-08-04T14:55:21.214Z,34.91
2022-08-04T14:58:36.227Z,35.63
2022-08-04T15:00:37.016Z,36.36
2022-08-04T15:03:10.629Z,37.02
2022-08-04T15:06:01.699Z,37.64
2022-08-04T15:08:31.023Z,38.28
2022-08-04T15:11:03.239Z,38.80
2022-08-04T15:13:33.510Z,39.20
2022-08-04T15:16:06.687Z,39.49
2022-08-04T15:18:37.031Z,39.66
2022-08-04T15:21:04.774Z,39.76
2022-08-04T15:23:38.774Z,39.79
2022-08-04T15:26:09.957Z,39.69
2022-08-04T15:28:38.615Z,39.55
2022-08-04T15:31:10.646Z,39.28
2022-08-04T15:33:58.316Z,38.87
2022-08-04T15:36:33.470Z,38.45
2022-08-04T15:39:11.921Z,37.96
2022-08-04T15:42:15.079Z,37.37
2022-08-04T15:44:53.298Z,36.95
2022-08-04T15:47:26.024Z,36.48
2022-08-04T15:50:11.034Z,35.94
2022-08-04T15:53:00.791Z,35.49
2022-08-04T15:55:44.185Z,35.09
2022-08-04T15:58:15.683Z,34.73
2022-08-04T16:00:47.967Z,34.36
2022-08-04T16:04:00.562Z,33.98
2022-08-04T16:06:29.774Z,33.76
2022-08-04T16:09:02.624Z,33.48
2022-08-04T16:11:30.988Z,33.28
2022-08-04T16:14:05.479Z,33.08
2022-08-04T16:16:46.874Z,32.93
2022-08-04T16:19:41.519Z,32.68
2022-08-04T16:22:13.148Z,32.59
2022-08-04T16:24:41.795Z,32.48
2022-08-04T16:27:13.114Z,32.32
2022-08-04T16:29:45.684Z,32.22
2022-08-04T16:32:17.261Z,32.15
2022-08-04T16:35:00.096Z,32.10
2022-08-04T16:37:31.246Z,32.03
2022-08-04T16:40:34.406Z,31.91
2022-08-04T16:43:13.286Z,31.87
2022-08-04T16:45:55.962Z,31.78
2022-08-04T16:48:35.718Z,31.72
2022-08-04T16:51:08.105Z,31.69
2022-08-04T16:53:53.578Z,31.63
2022-08-04T16:56:33.101Z,31.51
2022-08-04T16:59:10.037Z,31.44
2022-08-04T17:01:38.305Z,31.38
2022-08-04T17:04:05.780Z,31.31
2022-08-04T17:06:38.120Z,31.25
2022-08-04T17:09:07.446Z,31.21
2022-08-04T17:11:34.286Z,31.18
2022-08-04T17:14:05.418Z,31.17
2022-08-04T17:16:36.161Z,31.14
2022-08-04T17:19:03.762Z,31.12
2022-08-04T17:21:32.626Z,31.10
2022-08-04T17:24:15.756Z,31.08
2022-08-04T17:26:53.602Z,31.10
2022-08-04T17:29:21.676Z,31.10
2022-08-04T17:31:48.482Z,31.10
2022-08-04T17:34:16.651Z,31.05
2022-08-04T17:36:47.639Z,31.01
2022-08-04T17:39:20.225Z,30.95
2022-08-04T17:41:49.677Z,30.87
2022-08-04T17:44:17.695Z,30.79
2022-08-04T17:46:48.459Z,30.69
2022-08-04T17:49:18.397Z,30.61
2022-08-04T17:52:06.722Z,30.48
2022-08-04T17:54:39.578Z,30.43
2022-08-04T17:57:23.034Z,30.30
2022-08-04T17:59:59.941Z,30.27
2022-08-04T18:02:34.087Z,30.22
2022-08-04T18:05:08.027Z,30.17
2022-08-04T18:08:35.624Z,30.10
2022-08-04T18:10:46.306Z,30.01
2022-08-04T18:13:22.372Z,30.01
2022-08-04T18:15:51.183Z,29.93
2022-08-04T18:18:21.636Z,29.86
2022-08-04T18:20:50.103Z,29.78
2022-08-04T18:23:17.055Z,29.71
2022-08-04T18:25:51.059Z,29.63
2022-08-04T18:28:26.476Z,29.59
2022-08-04T18:30:55.693Z,29.53
2022-08-04T18:33:40.148Z,29.46
2022-08-04T18:36:33.752Z,29.41
2022-08-04T18:38:59.041Z,29.35
2022-08-04T18:41:29.119Z,29.30
2022-08-04T18:44:15.703Z,29.25
2022-08-04T18:46:55.699Z,29.20
2022-08-04T18:51:00.922Z,29.15
2022-08-04T18:52:14.928Z,29.09
2022-08-04T18:54:42.793Z,29.02
2022-08-04T18:59:56.606Z,28.91
2022-08-04T19:02:23.435Z,28.85
2022-08-04T19:04:53.279Z,28.80
2022-08-04T19:07:29.246Z,28.73
2022-08-04T19:12:43.607Z,28.60
2022-08-04T19:15:12.197Z,28.54
2022-08-04T19:17:54.149Z,28.47
2022-08-04T19:20:26.346Z,28.42
2022-08-04T19:24:10.129Z,28.35
2022-08-04T19:25:41.538Z,28.32
2022-08-04T19:28:29.836Z,28.28
2022-08-04T19:30:58.106Z,28.25
2022-08-04T19:33:25.350Z,28.20
2022-08-04T19:35:52.659Z,28.18
2022-08-04T19:38:20.696Z,28.17
2022-08-04T19:40:50.510Z,28.13
2022-08-04T19:43:20.819Z,28.08
2022-08-04T19:45:51.122Z,28.04
2022-08-04T19:48:19.997Z,28.00
2022-08-04T19:50:48.358Z,27.95
2022-08-04T19:53:19.676Z,27.90
2022-08-04T19:55:49.468Z,27.85
2022-08-04T19:58:17.824Z,27.77
2022-08-04T20:00:50.854Z,27.72
2022-08-04T20:03:20.424Z,27.64
2022-08-04T20:05:53.461Z,27.57
2022-08-04T20:08:23.949Z,27.51
2022-08-04T20:10:51.953Z,27.45
2022-08-04T20:13:20.024Z,27.39
2022-08-04T20:15:57.439Z,27.35
2022-08-04T20:18:34.886Z,27.30
2022-08-04T20:21:03.700Z,27.27
2022-08-04T20:23:48.643Z,27.23
2022-08-04T20:26:16.866Z,27.17
2022-08-04T20:28:45.889Z,27.14
2022-08-04T20:31:18.758Z,27.06
2022-08-04T20:33:49.153Z,26.99
2022-08-04T20:36:20.970Z,26.92
2022-08-04T20:38:51.754Z,26.85
2022-08-04T20:41:19.643Z,26.77
2022-08-04T20:43:49.568Z,26.70
2022-08-04T20:46:28.958Z,26.64
2022-08-04T20:48:57.288Z,26.58
2022-08-04T20:51:31.987Z,26.52
2022-08-04T20:54:01.258Z,26.46
2022-08-04T20:56:31.013Z,26.40
2022-08-04T20:58:59.919Z,26.34
2022-08-04T21:01:29.826Z,26.29
2022-08-04T21:04:27.237Z,26.23
2022-08-04T21:06:59.837Z,26.19
2022-08-04T21:09:38.363Z,26.14
2022-08-04T21:12:28.514Z,26.08
2022-08-04T21:17:58.320Z,26.01
2022-08-04T21:20:29.942Z,25.96
2022-08-04T21:22:59.787Z,25.91
2022-08-04T21:25:29.253Z,25.86
2022-08-04T21:27:58.865Z,25.83
2022-08-04T21:30:26.651Z,25.80
2022-08-04T21:32:55.245Z,25.76
2022-08-04T21:35:37.183Z,25.73
2022-08-04T21:38:17.616Z,25.71
2022-08-04T21:40:53.638Z,25.64
2022-08-04T21:43:27.429Z,25.65
2022-08-04T21:45:56.069Z,25.61
2022-08-04T21:48:27.303Z,25.58
2022-08-04T21:50:55.332Z,25.56
2022-08-04T21:53:22.441Z,25.55
2022-08-04T21:56:06.846Z,25.52
2022-08-04T21:58:36.914Z,25.51
2022-08-04T22:01:13.342Z,25.49
2022-08-04T22:03:53.026Z,25.50
2022-08-04T22:06:28.594Z,25.49
2022-08-04T22:08:56.357Z,25.49
2022-08-04T22:11:48.790Z,25.48
2022-08-04T22:14:17.796Z,25.48
2022-08-04T22:16:56.629Z,25.47
2022-08-04T22:19:40.956Z,25.46
2022-08-04T22:22:13.431Z,25.46
2022-08-04T22:24:40.298Z,25.44
2022-08-04T22:27:11.779Z,25.41
2022-08-04T22:29:39.308Z,25.43
2022-08-04T22:32:11.198Z,25.42
2022-08-04T22:34:45.482Z,25.41
2022-08-04T22:37:19.827Z,25.41
2022-08-04T22:39:56.237Z,25.40
2022-08-04T22:42:24.059Z,25.38
2022-08-04T22:44:50.833Z,25.37
2022-08-04T22:47:20.188Z,25.37
2022-08-04T22:49:56.499Z,25.37
2022-08-04T22:52:36.766Z,25.35
2022-08-04T22:55:22.147Z,25.34
2022-08-04T22:58:04.885Z,25.33
2022-08-04T23:00:35.845Z,25.31
2022-08-04T23:03:06.698Z,25.30
2022-08-04T23:05:37.881Z,25.28
2022-08-04T23:08:05.348Z,25.27
2022-08-04T23:10:33.114Z,25.24
2022-08-04T23:13:04.190Z,25.23
2022-08-04T23:15:33.441Z,25.20
2022-08-04T23:18:00.658Z,25.18
2022-08-04T23:20:32.865Z,25.15
2022-08-04T23:23:12.477Z,25.12
2022-08-04T23:26:07.993Z,25.09
2022-08-04T23:28:31.175Z,25.06
2022-08-04T23:30:57.781Z,25.03
2022-08-04T23:33:24.786Z,24.99
2022-08-04T23:36:11.838Z,24.97
2022-08-04T23:38:39.212Z,24.93
2022-08-04T23:41:17.242Z,24.85
2022-08-04T23:43:55.473Z,24.82
2022-08-04T23:46:23.064Z,24.76
2022-08-04T23:48:49.730Z,24.71
2022-08-04T23:51:16.570Z,24.64
2022-08-04T23:54:01.870Z,24.54
2022-08-04T23:56:32.112Z,24.47
2022-08-04T23:59:00.126Z,24.38
